Terminal Aerodrome Forecast
Issued by NWS

Home | Current Version | Previous Version | Text Only | Print | Product List | Glossary Off
Versions: 1 2 3 4 5 6 7 8 9 10 11 12 13 14 15

584
FTUS42 KMHX 051736
TAFPGV
TAF
KPGV 051736Z 0518/0618 35008KT P6SM SCT200
     FM060200 04004KT P6SM SCT050 BKN100
     FM060600 04005KT 5SM -RA SCT015 OVC040
     FM061000 05008KT 4SM -RA BKN007 OVC020
      AMD LTD TO CLD VIS AND WIND=

USA.gov is the U.S. government's official web portal to all federal, state and local government web resources and services.